sensor_id;sensor_type;location;lat;lon;timestamp;P1;durP1;ratioP1;P2;durP2;ratioP2
17790;SDS011;9019;48.132;-1.210;2023-03-01T00:00:19;53.53;;;36.67;;
17790;SDS011;9019;48.132;-1.210;2023-03-01T00:02:46;41.57;;;27.67;;
17790;SDS011;9019;48.132;-1.210;2023-03-01T00:05:13;41.97;;;28.60;;
17790;SDS011;9019;48.132;-1.210;2023-03-01T00:07:42;41.90;;;28.00;;
17790;SDS011;9019;48.132;-1.210;2023-03-01T00:10:10;51.43;;;35.57;;
17790;SDS011;9019;48.132;-1.210;2023-03-01T00:12:37;51.30;;;35.30;;
17790;SDS011;9019;48.132;-1.210;2023-03-01T00:15:04;39.37;;;26.97;;
17790;SDS011;9019;48.132;-1.210;2023-03-01T00:17:32;41.17;;;27.87;;
17790;SDS011;9019;48.132;-1.210;2023-03-01T00:19:59;48.93;;;31.87;;
17790;SDS011;9019;48.132;-1.210;2023-03-01T00:22:26;39.40;;;26.30;;
17790;SDS011;9019;48.132;-1.210;2023-03-01T00:24:55;39.37;;;26.60;;
17790;SDS011;9019;48.132;-1.210;2023-03-01T00:27:22;50.60;;;35.00;;
17790;SDS011;9019;48.132;-1.210;2023-03-01T00:29:50;36.67;;;25.23;;
17790;SDS011;9019;48.132;-1.210;2023-03-01T00:32:17;42.03;;;29.00;;
17790;SDS011;9019;48.132;-1.210;2023-03-01T00:34:44;48.23;;;33.37;;
17790;SDS011;9019;48.132;-1.210;2023-03-01T00:37:19;41.83;;;27.17;;
17790;SDS011;9019;48.132;-1.210;2023-03-01T00:39:46;81.13;;;49.57;;
17790;SDS011;9019;48.132;-1.210;2023-03-01T00:42:15;58.93;;;38.10;;
17790;SDS011;9019;48.132;-1.210;2023-03-01T00:44:42;62.73;;;41.00;;
17790;SDS011;9019;48.132;-1.210;2023-03-01T00:47:09;96.10;;;59.43;;
17790;SDS011;9019;48.132;-1.210;2023-03-01T00:49:36;43.57;;;28.87;;
17790;SDS011;9019;48.132;-1.210;2023-03-01T00:52:04;36.40;;;26.27;;
17790;SDS011;9019;48.132;-1.210;2023-03-01T00:54:31;36.60;;;25.73;;
17790;SDS011;9019;48.132;-1.210;2023-03-01T00:56:58;36.73;;;25.60;;
17790;SDS011;9019;48.132;-1.210;2023-03-01T00:59:27;36.30;;;23.67;;
17790;SDS011;9019;48.132;-1.210;2023-03-01T01:01:54;34.67;;;23.40;;
17790;SDS011;9019;48.132;-1.210;2023-03-01T01:04:21;34.90;;;23.13;;
17790;SDS011;9019;48.132;-1.210;2023-03-01T01:06:48;31.70;;;22.40;;
17790;SDS011;9019;48.132;-1.210;2023-03-01T01:09:16;33.73;;;23.07;;
17790;SDS011;9019;48.132;-1.210;2023-03-01T01:11:44;31.23;;;21.57;;
17790;SDS011;9019;48.132;-1.210;2023-03-01T01:14:11;32.70;;;21.73;;
17790;SDS011;9019;48.132;-1.210;2023-03-01T01:16:40;30.87;;;21.00;;
17790;SDS011;9019;48.132;-1.210;2023-03-01T01:19:07;33.27;;;21.50;;
17790;SDS011;9019;48.132;-1.210;2023-03-01T01:21:34;31.30;;;20.67;;
17790;SDS011;9019;48.132;-1.210;2023-03-01T01:24:02;30.03;;;20.87;;
17790;SDS011;9019;48.132;-1.210;2023-03-01T01:26:30;27.83;;;20.57;;
17790;SDS011;9019;48.132;-1.210;2023-03-01T01:28:58;28.90;;;20.60;;
17790;SDS011;9019;48.132;-1.210;2023-03-01T01:31:26;31.03;;;20.90;;
17790;SDS011;9019;48.132;-1.210;2023-03-01T01:33:55;28.10;;;20.90;;
17790;SDS011;9019;48.132;-1.210;2023-03-01T01:36:22;28.67;;;19.43;;
17790;SDS011;9019;48.132;-1.210;2023-03-01T01:38:50;25.97;;;18.67;;
17790;SDS011;9019;48.132;-1.210;2023-03-01T01:41:17;28.33;;;19.87;;
17790;SDS011;9019;48.132;-1.210;2023-03-01T01:43:45;25.73;;;18.57;;
17790;SDS011;9019;48.132;-1.210;2023-03-01T01:46:15;23.77;;;18.57;;
17790;SDS011;9019;48.132;-1.210;2023-03-01T01:48:43;26.17;;;18.73;;
17790;SDS011;9019;48.132;-1.210;2023-03-01T01:51:13;27.33;;;18.93;;
17790;SDS011;9019;48.132;-1.210;2023-03-01T01:53:43;25.90;;;18.10;;
17790;SDS011;9019;48.132;-1.210;2023-03-01T01:56:11;25.67;;;17.57;;
17790;SDS011;9019;48.132;-1.210;2023-03-01T01:58:40;24.40;;;17.70;;
17790;SDS011;9019;48.132;-1.210;2023-03-01T02:01:08;25.43;;;17.33;;
17790;SDS011;9019;48.132;-1.210;2023-03-01T02:03:36;23.60;;;17.47;;
17790;SDS011;9019;48.132;-1.210;2023-03-01T02:06:10;25.93;;;17.43;;
17790;SDS011;9019;48.132;-1.210;2023-03-01T02:08:40;22.00;;;16.73;;
17790;SDS011;9019;48.132;-1.210;2023-03-01T02:11:08;22.90;;;17.27;;
17790;SDS011;9019;48.132;-1.210;2023-03-01T02:13:36;25.10;;;17.50;;
17790;SDS011;9019;48.132;-1.210;2023-03-01T02:16:04;21.53;;;16.00;;
17790;SDS011;9019;48.132;-1.210;2023-03-01T02:18:31;23.03;;;16.73;;
17790;SDS011;9019;48.132;-1.210;2023-03-01T02:21:02;23.23;;;17.00;;
17790;SDS011;9019;48.132;-1.210;2023-03-01T02:23:32;22.50;;;16.67;;
17790;SDS011;9019;48.132;-1.210;2023-03-01T02:26:02;23.83;;;17.27;;
17790;SDS011;9019;48.132;-1.210;2023-03-01T02:28:34;23.20;;;17.47;;
17790;SDS011;9019;48.132;-1.210;2023-03-01T02:31:02;24.97;;;17.47;;
17790;SDS011;9019;48.132;-1.210;2023-03-01T02:33:47;24.40;;;16.63;;
17790;SDS011;9019;48.132;-1.210;2023-03-01T02:36:15;25.07;;;16.67;;
17790;SDS011;9019;48.132;-1.210;2023-03-01T02:38:43;23.03;;;16.60;;
17790;SDS011;9019;48.132;-1.210;2023-03-01T02:41:11;21.97;;;16.63;;
17790;SDS011;9019;48.132;-1.210;2023-03-01T02:43:40;22.50;;;17.20;;
17790;SDS011;9019;48.132;-1.210;2023-03-01T02:46:12;22.13;;;16.50;;
17790;SDS011;9019;48.132;-1.210;2023-03-01T02:48:41;24.67;;;16.77;;
17790;SDS011;9019;48.132;-1.210;2023-03-01T02:51:10;21.77;;;16.00;;
17790;SDS011;9019;48.132;-1.210;2023-03-01T02:53:39;22.77;;;16.57;;
17790;SDS011;9019;48.132;-1.210;2023-03-01T02:56:08;23.93;;;16.47;;
17790;SDS011;9019;48.132;-1.210;2023-03-01T02:58:38;21.97;;;16.10;;
17790;SDS011;9019;48.132;-1.210;2023-03-01T03:01:12;25.10;;;16.70;;
17790;SDS011;9019;48.132;-1.210;2023-03-01T03:03:41;23.40;;;16.23;;
17790;SDS011;9019;48.132;-1.210;2023-03-01T03:06:08;21.77;;;16.70;;
17790;SDS011;9019;48.132;-1.210;2023-03-01T03:08:35;25.20;;;16.40;;
17790;SDS011;9019;48.132;-1.210;2023-03-01T03:11:03;22.00;;;15.73;;
17790;SDS011;9019;48.132;-1.210;2023-03-01T03:13:30;22.87;;;15.77;;
17790;SDS011;9019;48.132;-1.210;2023-03-01T03:15:57;20.80;;;15.67;;
17790;SDS011;9019;48.132;-1.210;2023-03-01T03:18:26;20.73;;;15.87;;
17790;SDS011;9019;48.132;-1.210;2023-03-01T03:20:53;21.30;;;15.60;;
17790;SDS011;9019;48.132;-1.210;2023-03-01T03:23:21;21.63;;;15.60;;
17790;SDS011;9019;48.132;-1.210;2023-03-01T03:25:48;20.53;;;15.07;;
17790;SDS011;9019;48.132;-1.210;2023-03-01T03:28:16;22.10;;;15.60;;
17790;SDS011;9019;48.132;-1.210;2023-03-01T03:30:43;22.07;;;15.53;;
17790;SDS011;9019;48.132;-1.210;2023-03-01T03:33:12;20.93;;;15.63;;
17790;SDS011;9019;48.132;-1.210;2023-03-01T03:35:42;21.90;;;16.33;;
17790;SDS011;9019;48.132;-1.210;2023-03-01T03:38:10;22.07;;;15.33;;
17790;SDS011;9019;48.132;-1.210;2023-03-01T03:40:42;20.20;;;14.87;;
17790;SDS011;9019;48.132;-1.210;2023-03-01T03:43:10;22.03;;;15.90;;
17790;SDS011;9019;48.132;-1.210;2023-03-01T03:45:37;20.87;;;14.83;;
17790;SDS011;9019;48.132;-1.210;2023-03-01T03:48:05;20.90;;;15.27;;
17790;SDS011;9019;48.132;-1.210;2023-03-01T03:50:32;20.67;;;15.23;;
17790;SDS011;9019;48.132;-1.210;2023-03-01T03:53:02;21.70;;;15.83;;
17790;SDS011;9019;48.132;-1.210;2023-03-01T03:55:29;22.43;;;15.60;;
17790;SDS011;9019;48.132;-1.210;2023-03-01T03:57:59;21.90;;;14.97;;
17790;SDS011;9019;48.132;-1.210;2023-03-01T04:00:32;20.13;;;14.63;;
17790;SDS011;9019;48.132;-1.210;2023-03-01T04:02:59;20.33;;;15.10;;
17790;SDS011;9019;48.132;-1.210;2023-03-01T04:05:27;22.10;;;15.30;;
17790;SDS011;9019;48.132;-1.210;2023-03-01T04:07:54;22.83;;;15.87;;
17790;SDS011;9019;48.132;-1.210;2023-03-01T04:10:34;21.73;;;15.87;;
17790;SDS011;9019;48.132;-1.210;2023-03-01T04:13:02;22.07;;;15.10;;
17790;SDS011;9019;48.132;-1.210;2023-03-01T04:15:29;22.57;;;15.77;;
17790;SDS011;9019;48.132;-1.210;2023-03-01T04:17:57;20.93;;;15.27;;
17790;SDS011;9019;48.132;-1.210;2023-03-01T04:20:25;22.70;;;15.20;;
17790;SDS011;9019;48.132;-1.210;2023-03-01T04:22:56;20.80;;;15.67;;
17790;SDS011;9019;48.132;-1.210;2023-03-01T04:25:24;19.87;;;14.77;;
17790;SDS011;9019;48.132;-1.210;2023-03-01T04:27:53;23.50;;;15.43;;
17790;SDS011;9019;48.132;-1.210;2023-03-01T04:30:20;21.67;;;15.23;;
17790;SDS011;9019;48.132;-1.210;2023-03-01T04:32:50;22.00;;;15.20;;
17790;SDS011;9019;48.132;-1.210;2023-03-01T04:35:17;20.33;;;14.67;;
17790;SDS011;9019;48.132;-1.210;2023-03-01T04:37:45;23.50;;;15.07;;
17790;SDS011;9019;48.132;-1.210;2023-03-01T04:40:12;20.40;;;14.67;;
17790;SDS011;9019;48.132;-1.210;2023-03-01T04:42:41;21.87;;;15.73;;
17790;SDS011;9019;48.132;-1.210;2023-03-01T04:45:10;21.37;;;15.33;;
17790;SDS011;9019;48.132;-1.210;2023-03-01T04:47:39;21.83;;;15.03;;
17790;SDS011;9019;48.132;-1.210;2023-03-01T04:50:08;19.43;;;14.73;;
17790;SDS011;9019;48.132;-1.210;2023-03-01T04:52:35;23.80;;;15.27;;
17790;SDS011;9019;48.132;-1.210;2023-03-01T04:55:02;20.03;;;14.70;;
17790;SDS011;9019;48.132;-1.210;2023-03-01T04:57:30;21.60;;;14.47;;
17790;SDS011;9019;48.132;-1.210;2023-03-01T04:59:57;21.13;;;14.80;;
17790;SDS011;9019;48.132;-1.210;2023-03-01T05:02:26;21.47;;;14.70;;
17790;SDS011;9019;48.132;-1.210;2023-03-01T05:04:54;21.77;;;14.63;;
17790;SDS011;9019;48.132;-1.210;2023-03-01T05:07:22;18.90;;;13.87;;
17790;SDS011;9019;48.132;-1.210;2023-03-01T05:09:51;20.23;;;14.47;;
17790;SDS011;9019;48.132;-1.210;2023-03-01T05:12:19;20.07;;;14.50;;
17790;SDS011;9019;48.132;-1.210;2023-03-01T05:14:46;20.50;;;14.17;;
17790;SDS011;9019;48.132;-1.210;2023-03-01T05:17:16;23.27;;;14.50;;
17790;SDS011;9019;48.132;-1.210;2023-03-01T05:19:44;19.90;;;14.20;;
17790;SDS011;9019;48.132;-1.210;2023-03-01T05:22:11;18.70;;;13.77;;
17790;SDS011;9019;48.132;-1.210;2023-03-01T05:24:38;19.03;;;13.37;;
17790;SDS011;9019;48.132;-1.210;2023-03-01T05:27:06;18.30;;;13.40;;
17790;SDS011;9019;48.132;-1.210;2023-03-01T05:29:33;20.93;;;14.43;;
17790;SDS011;9019;48.132;-1.210;2023-03-01T05:32:01;21.67;;;14.57;;
17790;SDS011;9019;48.132;-1.210;2023-03-01T05:34:29;21.97;;;14.60;;
17790;SDS011;9019;48.132;-1.210;2023-03-01T05:36:58;18.83;;;13.90;;
17790;SDS011;9019;48.132;-1.210;2023-03-01T05:39:26;21.07;;;13.80;;
17790;SDS011;9019;48.132;-1.210;2023-03-01T05:41:54;20.93;;;14.50;;
17790;SDS011;9019;48.132;-1.210;2023-03-01T05:44:22;20.33;;;14.50;;
17790;SDS011;9019;48.132;-1.210;2023-03-01T05:46:49;20.13;;;14.33;;
17790;SDS011;9019;48.132;-1.210;2023-03-01T05:49:17;19.87;;;14.10;;
17790;SDS011;9019;48.132;-1.210;2023-03-01T05:51:47;20.83;;;14.37;;
17790;SDS011;9019;48.132;-1.210;2023-03-01T05:54:16;63.70;;;31.10;;
17790;SDS011;9019;48.132;-1.210;2023-03-01T05:56:43;35.97;;;20.93;;
17790;SDS011;9019;48.132;-1.210;2023-03-01T05:59:11;52.43;;;30.20;;
17790;SDS011;9019;48.132;-1.210;2023-03-01T06:01:38;37.17;;;24.07;;
17790;SDS011;9019;48.132;-1.210;2023-03-01T06:04:06;63.10;;;37.47;;
17790;SDS011;9019;48.132;-1.210;2023-03-01T06:06:33;49.70;;;29.97;;
17790;SDS011;9019;48.132;-1.210;2023-03-01T06:09:02;46.13;;;30.63;;
17790;SDS011;9019;48.132;-1.210;2023-03-01T06:11:31;23.47;;;14.90;;
17790;SDS011;9019;48.132;-1.210;2023-03-01T06:13:58;23.87;;;15.47;;
17790;SDS011;9019;48.132;-1.210;2023-03-01T06:16:25;68.20;;;35.83;;
17790;SDS011;9019;48.132;-1.210;2023-03-01T06:18:52;80.93;;;41.97;;
17790;SDS011;9019;48.132;-1.210;2023-03-01T06:21:19;44.87;;;26.17;;
17790;SDS011;9019;48.132;-1.210;2023-03-01T06:23:46;77.57;;;37.57;;
17790;SDS011;9019;48.132;-1.210;2023-03-01T06:26:13;37.90;;;25.30;;
17790;SDS011;9019;48.132;-1.210;2023-03-01T06:28:42;22.77;;;16.50;;
17790;SDS011;9019;48.132;-1.210;2023-03-01T06:31:11;47.03;;;36.00;;
17790;SDS011;9019;48.132;-1.210;2023-03-01T06:33:38;28.20;;;23.13;;
17790;SDS011;9019;48.132;-1.210;2023-03-01T06:36:06;50.33;;;38.77;;
17790;SDS011;9019;48.132;-1.210;2023-03-01T06:38:33;25.73;;;19.43;;
17790;SDS011;9019;48.132;-1.210;2023-03-01T06:41:00;28.03;;;20.50;;
17790;SDS011;9019;48.132;-1.210;2023-03-01T06:43:27;44.17;;;32.23;;
17790;SDS011;9019;48.132;-1.210;2023-03-01T06:45:56;26.60;;;19.17;;
17790;SDS011;9019;48.132;-1.210;2023-03-01T06:48:24;53.93;;;38.37;;
17790;SDS011;9019;48.132;-1.210;2023-03-01T06:50:51;22.10;;;15.70;;
17790;SDS011;9019;48.132;-1.210;2023-03-01T06:53:18;24.30;;;16.13;;
17790;SDS011;9019;48.132;-1.210;2023-03-01T06:55:45;30.23;;;21.63;;
17790;SDS011;9019;48.132;-1.210;2023-03-01T06:58:12;69.33;;;45.97;;
17790;SDS011;9019;48.132;-1.210;2023-03-01T07:00:40;139.20;;;68.33;;
17790;SDS011;9019;48.132;-1.210;2023-03-01T07:03:09;115.63;;;58.07;;
17790;SDS011;9019;48.132;-1.210;2023-03-01T07:05:37;136.03;;;72.10;;
17790;SDS011;9019;48.132;-1.210;2023-03-01T07:08:04;46.33;;;30.43;;
17790;SDS011;9019;48.132;-1.210;2023-03-01T07:10:31;69.73;;;38.40;;
17790;SDS011;9019;48.132;-1.210;2023-03-01T07:12:59;152.83;;;79.20;;
17790;SDS011;9019;48.132;-1.210;2023-03-01T07:15:26;106.93;;;63.47;;
17790;SDS011;9019;48.132;-1.210;2023-03-01T07:17:54;30.37;;;21.90;;
17790;SDS011;9019;48.132;-1.210;2023-03-01T07:20:24;37.47;;;28.10;;
17790;SDS011;9019;48.132;-1.210;2023-03-01T07:22:51;25.27;;;19.27;;
17790;SDS011;9019;48.132;-1.210;2023-03-01T07:25:18;21.63;;;15.17;;
17790;SDS011;9019;48.132;-1.210;2023-03-01T07:27:48;18.40;;;14.00;;
17790;SDS011;9019;48.132;-1.210;2023-03-01T07:30:16;44.43;;;31.77;;
17790;SDS011;9019;48.132;-1.210;2023-03-01T07:32:43;25.23;;;20.73;;
17790;SDS011;9019;48.132;-1.210;2023-03-01T07:35:11;30.40;;;22.37;;
17790;SDS011;9019;48.132;-1.210;2023-03-01T07:37:41;38.97;;;27.97;;
17790;SDS011;9019;48.132;-1.210;2023-03-01T07:40:09;30.97;;;22.03;;
17790;SDS011;9019;48.132;-1.210;2023-03-01T07:42:36;25.93;;;19.23;;
17790;SDS011;9019;48.132;-1.210;2023-03-01T07:45:04;23.20;;;17.17;;
17790;SDS011;9019;48.132;-1.210;2023-03-01T07:47:32;26.70;;;22.27;;
17790;SDS011;9019;48.132;-1.210;2023-03-01T07:49:59;22.67;;;19.53;;
17790;SDS011;9019;48.132;-1.210;2023-03-01T07:52:28;29.93;;;26.90;;
17790;SDS011;9019;48.132;-1.210;2023-03-01T07:54:57;23.73;;;21.43;;
17790;SDS011;9019;48.132;-1.210;2023-03-01T07:57:24;19.73;;;15.17;;
17790;SDS011;9019;48.132;-1.210;2023-03-01T07:59:52;15.57;;;13.97;;
17790;SDS011;9019;48.132;-1.210;2023-03-01T08:02:19;16.00;;;13.03;;
17790;SDS011;9019;48.132;-1.210;2023-03-01T08:04:46;16.63;;;13.13;;
17790;SDS011;9019;48.132;-1.210;2023-03-01T08:07:13;14.50;;;12.43;;
17790;SDS011;9019;48.132;-1.210;2023-03-01T08:09:40;13.90;;;12.40;;
17790;SDS011;9019;48.132;-1.210;2023-03-01T08:12:09;14.87;;;13.27;;
17790;SDS011;9019;48.132;-1.210;2023-03-01T08:14:36;16.37;;;13.40;;
17790;SDS011;9019;48.132;-1.210;2023-03-01T08:17:03;14.23;;;12.63;;
17790;SDS011;9019;48.132;-1.210;2023-03-01T08:19:30;14.40;;;11.97;;
17790;SDS011;9019;48.132;-1.210;2023-03-01T08:21:59;13.80;;;12.33;;
17790;SDS011;9019;48.132;-1.210;2023-03-01T08:24:28;15.20;;;13.53;;
17790;SDS011;9019;48.132;-1.210;2023-03-01T08:26:55;14.93;;;13.33;;
17790;SDS011;9019;48.132;-1.210;2023-03-01T08:29:24;18.17;;;15.77;;
17790;SDS011;9019;48.132;-1.210;2023-03-01T08:31:51;16.83;;;14.63;;
17790;SDS011;9019;48.132;-1.210;2023-03-01T08:34:18;16.47;;;13.27;;
17790;SDS011;9019;48.132;-1.210;2023-03-01T08:36:45;13.80;;;12.33;;
17790;SDS011;9019;48.132;-1.210;2023-03-01T08:39:13;13.20;;;11.80;;
17790;SDS011;9019;48.132;-1.210;2023-03-01T08:41:41;13.80;;;12.40;;
17790;SDS011;9019;48.132;-1.210;2023-03-01T08:44:08;13.67;;;12.27;;
17790;SDS011;9019;48.132;-1.210;2023-03-01T08:46:38;14.83;;;13.37;;
17790;SDS011;9019;48.132;-1.210;2023-03-01T08:49:06;28.80;;;22.13;;
17790;SDS011;9019;48.132;-1.210;2023-03-01T08:51:34;17.07;;;15.03;;
17790;SDS011;9019;48.132;-1.210;2023-03-01T08:54:01;16.40;;;14.70;;
17790;SDS011;9019;48.132;-1.210;2023-03-01T08:56:29;23.17;;;19.10;;
17790;SDS011;9019;48.132;-1.210;2023-03-01T08:58:56;15.33;;;13.50;;
17790;SDS011;9019;48.132;-1.210;2023-03-01T09:01:23;15.27;;;13.67;;
17790;SDS011;9019;48.132;-1.210;2023-03-01T09:03:52;14.87;;;13.27;;
17790;SDS011;9019;48.132;-1.210;2023-03-01T09:06:19;23.40;;;17.43;;
17790;SDS011;9019;48.132;-1.210;2023-03-01T09:08:47;15.30;;;13.80;;
17790;SDS011;9019;48.132;-1.210;2023-03-01T09:11:15;14.47;;;12.97;;
17790;SDS011;9019;48.132;-1.210;2023-03-01T09:13:43;14.43;;;12.93;;
17790;SDS011;9019;48.132;-1.210;2023-03-01T09:16:11;16.10;;;14.40;;
17790;SDS011;9019;48.132;-1.210;2023-03-01T09:18:39;14.47;;;12.97;;
17790;SDS011;9019;48.132;-1.210;2023-03-01T09:21:08;16.67;;;13.47;;
17790;SDS011;9019;48.132;-1.210;2023-03-01T09:23:36;14.97;;;13.40;;
17790;SDS011;9019;48.132;-1.210;2023-03-01T09:26:04;56.20;;;40.23;;
17790;SDS011;9019;48.132;-1.210;2023-03-01T09:28:31;80.23;;;51.07;;
17790;SDS011;9019;48.132;-1.210;2023-03-01T09:30:58;97.63;;;63.27;;
17790;SDS011;9019;48.132;-1.210;2023-03-01T09:33:25;41.03;;;29.80;;
17790;SDS011;9019;48.132;-1.210;2023-03-01T09:35:55;43.07;;;33.73;;
17790;SDS011;9019;48.132;-1.210;2023-03-01T09:38:24;46.17;;;32.90;;
17790;SDS011;9019;48.132;-1.210;2023-03-01T09:40:52;69.77;;;49.40;;
17790;SDS011;9019;48.132;-1.210;2023-03-01T09:43:21;24.77;;;19.40;;
17790;SDS011;9019;48.132;-1.210;2023-03-01T09:45:50;40.10;;;28.97;;
17790;SDS011;9019;48.132;-1.210;2023-03-01T09:48:21;36.37;;;29.93;;
17790;SDS011;9019;48.132;-1.210;2023-03-01T09:50:48;18.20;;;16.30;;
17790;SDS011;9019;48.132;-1.210;2023-03-01T09:53:17;18.03;;;14.83;;
17790;SDS011;9019;48.132;-1.210;2023-03-01T09:55:48;39.27;;;35.37;;
17790;SDS011;9019;48.132;-1.210;2023-03-01T09:58:25;27.77;;;24.80;;
17790;SDS011;9019;48.132;-1.210;2023-03-01T10:00:54;18.87;;;14.63;;
17790;SDS011;9019;48.132;-1.210;2023-03-01T10:03:24;17.60;;;15.23;;
17790;SDS011;9019;48.132;-1.210;2023-03-01T10:05:55;19.43;;;17.20;;
17790;SDS011;9019;48.132;-1.210;2023-03-01T10:08:26;20.87;;;17.93;;
17790;SDS011;9019;48.132;-1.210;2023-03-01T10:10:57;20.10;;;16.30;;
17790;SDS011;9019;48.132;-1.210;2023-03-01T10:13:26;21.40;;;18.83;;
17790;SDS011;9019;48.132;-1.210;2023-03-01T10:15:55;21.63;;;16.33;;
17790;SDS011;9019;48.132;-1.210;2023-03-01T10:18:24;19.90;;;16.57;;
17790;SDS011;9019;48.132;-1.210;2023-03-01T10:20:53;19.40;;;16.27;;
17790;SDS011;9019;48.132;-1.210;2023-03-01T10:23:22;18.83;;;15.37;;
17790;SDS011;9019;48.132;-1.210;2023-03-01T10:26:00;19.07;;;16.07;;
17790;SDS011;9019;48.132;-1.210;2023-03-01T10:28:38;18.90;;;15.97;;
17790;SDS011;9019;48.132;-1.210;2023-03-01T10:31:11;22.20;;;17.93;;
17790;SDS011;9019;48.132;-1.210;2023-03-01T10:33:39;18.30;;;14.83;;
17790;SDS011;9019;48.132;-1.210;2023-03-01T10:36:07;17.10;;;14.13;;
17790;SDS011;9019;48.132;-1.210;2023-03-01T10:38:47;17.50;;;14.47;;
17790;SDS011;9019;48.132;-1.210;2023-03-01T10:41:16;22.07;;;17.43;;
17790;SDS011;9019;48.132;-1.210;2023-03-01T10:43:44;18.67;;;14.97;;
17790;SDS011;9019;48.132;-1.210;2023-03-01T10:46:22;18.23;;;15.37;;
17790;SDS011;9019;48.132;-1.210;2023-03-01T10:48:55;16.40;;;14.63;;
17790;SDS011;9019;48.132;-1.210;2023-03-01T10:51:31;15.77;;;13.33;;
17790;SDS011;9019;48.132;-1.210;2023-03-01T10:53:59;17.70;;;13.97;;
17790;SDS011;9019;48.132;-1.210;2023-03-01T10:56:27;16.17;;;13.47;;
17790;SDS011;9019;48.132;-1.210;2023-03-01T10:58:59;16.23;;;13.47;;
17790;SDS011;9019;48.132;-1.210;2023-03-01T11:01:27;15.60;;;13.33;;
17790;SDS011;9019;48.132;-1.210;2023-03-01T11:04:09;14.87;;;13.27;;
17790;SDS011;9019;48.132;-1.210;2023-03-01T11:06:38;15.90;;;13.10;;
17790;SDS011;9019;48.132;-1.210;2023-03-01T11:09:13;15.70;;;13.03;;
17790;SDS011;9019;48.132;-1.210;2023-03-01T11:11:42;16.13;;;13.67;;
17790;SDS011;9019;48.132;-1.210;2023-03-01T11:14:13;17.13;;;13.80;;
17790;SDS011;9019;48.132;-1.210;2023-03-01T11:16:43;15.90;;;13.43;;
17790;SDS011;9019;48.132;-1.210;2023-03-01T11:19:16;15.63;;;13.93;;
17790;SDS011;9019;48.132;-1.210;2023-03-01T11:21:46;15.93;;;13.53;;
17790;SDS011;9019;48.132;-1.210;2023-03-01T11:24:14;14.73;;;13.13;;
17790;SDS011;9019;48.132;-1.210;2023-03-01T11:26:44;17.50;;;14.17;;
17790;SDS011;9019;48.132;-1.210;2023-03-01T11:29:13;15.07;;;13.47;;
17790;SDS011;9019;48.132;-1.210;2023-03-01T11:31:43;15.67;;;13.53;;
17790;SDS011;9019;48.132;-1.210;2023-03-01T11:34:13;14.93;;;13.40;;
17790;SDS011;9019;48.132;-1.210;2023-03-01T11:36:42;15.60;;;13.53;;
17790;SDS011;9019;48.132;-1.210;2023-03-01T11:39:15;133.93;;;60.97;;
17790;SDS011;9019;48.132;-1.210;2023-03-01T11:41:45;28.20;;;23.43;;
17790;SDS011;9019;48.132;-1.210;2023-03-01T11:44:18;18.17;;;16.30;;
17790;SDS011;9019;48.132;-1.210;2023-03-01T11:46:50;16.97;;;14.57;;
17790;SDS011;9019;48.132;-1.210;2023-03-01T11:52:02;17.70;;;15.40;;
17790;SDS011;9019;48.132;-1.210;2023-03-01T11:54:35;16.27;;;14.57;;
17790;SDS011;9019;48.132;-1.210;2023-03-01T11:57:09;17.97;;;15.80;;
17790;SDS011;9019;48.132;-1.210;2023-03-01T12:02:36;16.07;;;14.37;;
17790;SDS011;9019;48.132;-1.210;2023-03-01T12:05:20;17.33;;;14.80;;
17790;SDS011;9019;48.132;-1.210;2023-03-01T12:07:52;17.77;;;15.87;;
17790;SDS011;9019;48.132;-1.210;2023-03-01T12:10:23;16.43;;;14.57;;
17790;SDS011;9019;48.132;-1.210;2023-03-01T12:18:32;16.93;;;14.83;;
17790;SDS011;9019;48.132;-1.210;2023-03-01T12:21:05;18.00;;;16.10;;
17790;SDS011;9019;48.132;-1.210;2023-03-01T12:23:41;17.20;;;15.40;;
17790;SDS011;9019;48.132;-1.210;2023-03-01T12:26:14;17.33;;;15.53;;
17790;SDS011;9019;48.132;-1.210;2023-03-01T12:28:48;16.70;;;14.93;;
17790;SDS011;9019;48.132;-1.210;2023-03-01T12:31:29;22.30;;;19.80;;
17790;SDS011;9019;48.132;-1.210;2023-03-01T12:34:03;15.53;;;13.93;;
17790;SDS011;9019;48.132;-1.210;2023-03-01T12:36:40;18.80;;;16.47;;
17790;SDS011;9019;48.132;-1.210;2023-03-01T12:39:13;20.30;;;18.17;;
17790;SDS011;9019;48.132;-1.210;2023-03-01T12:41:46;16.73;;;14.93;;
17790;SDS011;9019;48.132;-1.210;2023-03-01T12:44:28;15.03;;;13.50;;
17790;SDS011;9019;48.132;-1.210;2023-03-01T12:47:02;15.33;;;13.50;;
17790;SDS011;9019;48.132;-1.210;2023-03-01T12:49:33;17.43;;;14.73;;
17790;SDS011;9019;48.132;-1.210;2023-03-01T12:52:02;20.47;;;14.87;;
17790;SDS011;9019;48.132;-1.210;2023-03-01T12:54:35;20.63;;;17.23;;
17790;SDS011;9019;48.132;-1.210;2023-03-01T12:57:16;17.00;;;14.93;;
17790;SDS011;9019;48.132;-1.210;2023-03-01T12:59:46;17.17;;;14.43;;
17790;SDS011;9019;48.132;-1.210;2023-03-01T13:02:18;16.90;;;14.37;;
17790;SDS011;9019;48.132;-1.210;2023-03-01T13:05:00;18.23;;;14.93;;
17790;SDS011;9019;48.132;-1.210;2023-03-01T13:07:33;17.43;;;15.53;;
17790;SDS011;9019;48.132;-1.210;2023-03-01T13:10:09;18.60;;;16.23;;
17790;SDS011;9019;48.132;-1.210;2023-03-01T13:12:42;18.50;;;16.50;;
17790;SDS011;9019;48.132;-1.210;2023-03-01T13:15:24;16.13;;;14.43;;
17790;SDS011;9019;48.132;-1.210;2023-03-01T13:17:52;17.33;;;15.30;;
17790;SDS011;9019;48.132;-1.210;2023-03-01T13:20:22;16.50;;;14.57;;
17790;SDS011;9019;48.132;-1.210;2023-03-01T13:23:00;17.80;;;15.83;;
17790;SDS011;9019;48.132;-1.210;2023-03-01T13:25:27;17.33;;;15.47;;
17790;SDS011;9019;48.132;-1.210;2023-03-01T13:28:27;15.67;;;13.70;;
17790;SDS011;9019;48.132;-1.210;2023-03-01T13:30:47;14.07;;;12.57;;
17790;SDS011;9019;48.132;-1.210;2023-03-01T13:33:37;14.23;;;12.73;;
17790;SDS011;9019;48.132;-1.210;2023-03-01T13:36:06;13.73;;;12.23;;
17790;SDS011;9019;48.132;-1.210;2023-03-01T13:38:36;14.30;;;12.87;;
17790;SDS011;9019;48.132;-1.210;2023-03-01T13:41:04;14.30;;;12.67;;
17790;SDS011;9019;48.132;-1.210;2023-03-01T13:43:32;13.73;;;12.27;;
17790;SDS011;9019;48.132;-1.210;2023-03-01T13:46:01;13.33;;;11.93;;
17790;SDS011;9019;48.132;-1.210;2023-03-01T13:48:29;14.10;;;12.60;;
17790;SDS011;9019;48.132;-1.210;2023-03-01T13:50:58;12.80;;;11.47;;
17790;SDS011;9019;48.132;-1.210;2023-03-01T13:53:27;13.20;;;11.80;;
17790;SDS011;9019;48.132;-1.210;2023-03-01T13:55:57;13.33;;;11.83;;
17790;SDS011;9019;48.132;-1.210;2023-03-01T13:58:26;15.07;;;11.77;;
17790;SDS011;9019;48.132;-1.210;2023-03-01T14:00:57;12.10;;;10.37;;
17790;SDS011;9019;48.132;-1.210;2023-03-01T14:03:27;14.00;;;12.33;;
17790;SDS011;9019;48.132;-1.210;2023-03-01T14:06:02;15.70;;;13.13;;
17790;SDS011;9019;48.132;-1.210;2023-03-01T14:08:31;13.87;;;12.37;;
17790;SDS011;9019;48.132;-1.210;2023-03-01T14:11:03;15.37;;;13.00;;
17790;SDS011;9019;48.132;-1.210;2023-03-01T14:13:35;14.03;;;12.53;;
17790;SDS011;9019;48.132;-1.210;2023-03-01T14:16:12;13.40;;;11.93;;
17790;SDS011;9019;48.132;-1.210;2023-03-01T14:18:45;14.73;;;12.27;;
17790;SDS011;9019;48.132;-1.210;2023-03-01T14:21:17;13.00;;;11.17;;
17790;SDS011;9019;48.132;-1.210;2023-03-01T14:23:44;15.60;;;11.47;;
17790;SDS011;9019;48.132;-1.210;2023-03-01T14:26:12;12.93;;;11.37;;
17790;SDS011;9019;48.132;-1.210;2023-03-01T14:28:40;14.00;;;11.60;;
17790;SDS011;9019;48.132;-1.210;2023-03-01T14:33:56;11.80;;;10.50;;
17790;SDS011;9019;48.132;-1.210;2023-03-01T14:36:25;13.33;;;11.40;;
17790;SDS011;9019;48.132;-1.210;2023-03-01T14:38:53;13.57;;;10.60;;
17790;SDS011;9019;48.132;-1.210;2023-03-01T14:41:20;13.63;;;10.73;;
17790;SDS011;9019;48.132;-1.210;2023-03-01T14:43:49;11.60;;;10.40;;
17790;SDS011;9019;48.132;-1.210;2023-03-01T14:46:18;12.87;;;10.87;;